Carolyn H — WDI5873 — position and weather

sailwx.info

Track history (hours):
 
Tides and Currents Weather Stations Pressure Air Temp Water Temp Dewpoint Dewpoint Depression Visibility Wind Speed Wind Dir Waves Ship Positions

Carolyn H

Owner: Boyer Towing, Inc., Ketchikan, AK. More information available from US FCC via Universal Licensing System and Coast Guard Vessel Documentation Center.

Last reported at 2018-Feb-16 23:05 UTC. Time now 2018-Feb-17 23:56 UTC.
Position N 47°32' W 122°20'.

Length 21 m; draft 2.2 m.

Type: Towing. MMSI: 367712860.

Date/timePositionNaut miles runAvg speedWind from/ knotsBaromVisibWave heightAir tempDewpointWater temp
2018-Feb-16 23:05N 47°32' W 122°20'0 0.2
2018-Feb-16 23:00N 47°32' W 122°20'3 5.0
2018-Feb-16 22:30N 47°34' W 122°22'2 4.2
2018-Feb-16 22:00N 47°36' W 122°21'2 4.8
2018-Feb-16 21:31N 47°38' W 122°24'3 5.3
2018-Feb-16 21:00N 47°40' W 122°26'3 6.2
2018-Feb-16 20:30N 47°42' W 122°24'3 5.5
2018-Feb-16 20:00N 47°45' W 122°23'2 4.7
2018-Feb-16 19:30N 47°47' W 122°24'2 4.9
2018-Feb-16 19:00N 47°50' W 122°22'3 5.7
2018-Feb-16 18:30N 47°52' W 122°20'3 6.4
2018-Feb-16 18:00N 47°55' W 122°19'3 6.9
2018-Feb-16 17:30N 47°58' W 122°16'4 7.5
2018-Feb-16 16:59N 48°01' W 122°13'2 1.7
2018-Feb-16 15:36N 47°59' W 122°11'0 2.3
2018-Feb-16 15:29N 47°60' W 122°11'1 1.5
2018-Feb-16 14:50N 48°01' W 122°11'1 1.6
2018-Feb-16 14:28N 48°01' W 122°11'1 2.8
2018-Feb-16 14:00N 48°01' W 122°13'1 2.3
2018-Feb-16 13:29N 47°60' W 122°13'0 0.0
2018-Feb-16 13:00N 47°60' W 122°13'0 0.0
2018-Feb-16 12:30N 47°60' W 122°13'0 0.0
2018-Feb-16 12:00N 47°60' W 122°13'0 0.0
2018-Feb-16 11:30N 47°60' W 122°13'0 0.0
2018-Feb-16 10:59N 47°60' W 122°13'0 0.0
2018-Feb-16 10:30N 47°60' W 122°13'0 0.0
2018-Feb-16 10:00N 47°60' W 122°13'0 0.0
2018-Feb-16 09:30N 47°60' W 122°13'0 0.0
2018-Feb-16 09:00N 47°60' W 122°13'0 0.0
2018-Feb-16 08:30N 47°60' W 122°13'0 1.0
2018-Feb-16 08:00N 47°59' W 122°14'2 4.3
2018-Feb-16 07:30N 47°58' W 122°16'2 4.6
2018-Feb-16 07:00N 47°57' W 122°19'2 4.9
2018-Feb-16 06:30N 47°54' W 122°20'2 4.6
2018-Feb-16 06:00N 47°52' W 122°21'2 5.0
2018-Feb-16 05:30N 47°50' W 122°23'3 6.1
2018-Feb-16 05:00N 47°47' W 122°24'3 6.3
2018-Feb-16 04:30N 47°44' W 122°25'3 6.0
2018-Feb-16 04:00N 47°41' W 122°25'1 2.7
2018-Feb-16 03:30N 47°40' W 122°24'1 1.1
2018-Feb-16 03:00N 47°40' W 122°23'0 0.6
2018-Feb-16 02:30N 47°40' W 122°23'0 0.0
2018-Feb-16 02:00N 47°40' W 122°23'0 0.8
2018-Feb-16 01:30N 47°40' W 122°23'1 1.3
2018-Feb-16 01:00N 47°40' W 122°24'1 1.6
2018-Feb-16 00:30N 47°41' W 122°25'0 0.3
2018-Feb-16 00:00N 47°41' W 122°25'0 0.0
2018-Feb-15 23:30N 47°41' W 122°25'0 0.0
2018-Feb-15 23:00N 47°41' W 122°25'0 0.0
2018-Feb-15 22:30N 47°41' W 122°25'0 0.0
2018-Feb-15 22:00N 47°41' W 122°25'0 0.0
2018-Feb-15 21:30N 47°41' W 122°25'0 0.0
2018-Feb-15 21:00N 47°41' W 122°25'0 0.0
2018-Feb-15 20:30N 47°41' W 122°25'0 0.0
2018-Feb-15 20:00N 47°41' W 122°25'0 0.0
2018-Feb-15 19:30N 47°41' W 122°25'0 0.0
2018-Feb-15 19:00N 47°41' W 122°25'0 0.0
2018-Feb-15 18:30N 47°41' W 122°25'0 0.0
2018-Feb-15 18:00N 47°41' W 122°25'0 0.0
2018-Feb-15 17:30N 47°41' W 122°25'0 0.0
2018-Feb-15 17:00N 47°41' W 122°25'0 0.0
2018-Feb-15 16:30N 47°41' W 122°25'0 0.0
2018-Feb-15 16:00N 47°41' W 122°25'0 0.1
2018-Feb-15 15:30N 47°41' W 122°25'0 0.2
2018-Feb-15 15:00N 47°41' W 122°25'0 0.6
2018-Feb-15 14:30N 47°40' W 122°25'2 3.8
2018-Feb-15 14:00N 47°39' W 122°26'2 4.6
2018-Feb-15 13:30N 47°37' W 122°23'2 4.5
2018-Feb-15 13:00N 47°35' W 122°22'2 3.3
2018-Feb-15 12:30N 47°33' W 122°21'1 2.6
2018-Feb-15 12:00N 47°32' W 122°20'0 0.0
2018-Feb-15 11:25N 47°32' W 122°20'0 0.0
2018-Feb-15 10:57N 47°32' W 122°20'0 0.0
2018-Feb-15 10:29N 47°32' W 122°20'0 0.0
2018-Feb-15 10:00N 47°32' W 122°20'0 0.0
2018-Feb-15 09:29N 47°32' W 122°20'0 0.0
2018-Feb-15 09:00N 47°32' W 122°20'0 0.0
2018-Feb-15 08:30N 47°32' W 122°20'0 0.0
2018-Feb-15 07:59N 47°32' W 122°20'0 0.0
2018-Feb-15 07:29N 47°32' W 122°20'0 0.0
2018-Feb-15 07:00N 47°32' W 122°20'0 0.0
2018-Feb-15 06:29N 47°32' W 122°20'0 0.0
2018-Feb-15 06:00N 47°32' W 122°20'0 0.0
2018-Feb-15 05:29N 47°32' W 122°20'0 0.0
2018-Feb-15 04:57N 47°32' W 122°20'0 0.0
2018-Feb-15 04:23N 47°32' W 122°20'0 0.0
2018-Feb-15 04:00N 47°32' W 122°20'0 0.0
2018-Feb-15 03:30N 47°32' W 122°20'0 0.0
2018-Feb-15 02:59N 47°32' W 122°20'0 0.0
2018-Feb-15 02:29N 47°32' W 122°20'0 0.0
2018-Feb-15 02:00N 47°32' W 122°20'0 0.0
2018-Feb-15 01:29N 47°32' W 122°20'0 0.0
2018-Feb-15 01:00N 47°32' W 122°20'0 0.0
2018-Feb-15 00:28N 47°32' W 122°20'0 0.0
2018-Feb-14 23:54N 47°32' W 122°20'0 0.0
2018-Feb-14 23:26N 47°32' W 122°20'0 0.0
2018-Feb-14 22:49N 47°32' W 122°20'0 0.0
2018-Feb-14 22:08N 47°32' W 122°20'0 0.6
2018-Feb-14 21:59N 47°32' W 122°20'2 4.7
2018-Feb-14 21:30N 47°34' W 122°21'2 3.5
2018-Feb-14 21:00N 47°36' W 122°20'0 0.3
2018-Feb-14 20:30N 47°36' W 122°20'0 0.3
2018-Feb-14 20:00N 47°36' W 122°20'0 0.0
2018-Feb-14 19:30N 47°36' W 122°20'0 0.8
2018-Feb-14 19:00N 47°36' W 122°21'2 3.8
2018-Feb-14 18:30N 47°34' W 122°21'3 5.1
2018-Feb-14 18:00N 47°32' W 122°20'2 3.8
2018-Feb-14 17:27N 47°34' W 122°21'2 4.4
2018-Feb-14 17:00N 47°36' W 122°20'0 0.1
2018-Feb-14 16:28N 47°36' W 122°20'0 0.2
2018-Feb-14 16:00N 47°36' W 122°20'1 1.2
2018-Feb-14 15:30N 47°36' W 122°21'0 0.0
2018-Feb-14 15:00N 47°36' W 122°21'2 4.4
2018-Feb-14 14:30N 47°34' W 122°21'2 4.2
2018-Feb-14 14:00N 47°32' W 122°20'0 0.0
2018-Feb-13 22:30N 47°32' W 122°20'3 5.5
2018-Feb-13 22:00N 47°35' W 122°22'2 3.2
2018-Feb-13 21:30N 47°36' W 122°20'0 0.1
2018-Feb-13 21:00N 47°36' W 122°20'0 0.2
2018-Feb-13 20:28N 47°36' W 122°20'0 0.2
2018-Feb-13 20:00N 47°36' W 122°20'0 0.1
2018-Feb-13 19:30N 47°36' W 122°20'1 1.1
2018-Feb-13 19:00N 47°36' W 122°21'0 0.0
2018-Feb-13 18:30N 47°36' W 122°21'1 1.1
2018-Feb-13 17:59N 47°36' W 122°20'0 0.1
2018-Feb-13 17:30N 47°36' W 122°20'0 0.3
2018-Feb-13 17:00N 47°36' W 122°20'0 0.0
2018-Feb-13 16:30N 47°36' W 122°20'0 0.0
2018-Feb-13 15:59N 47°36' W 122°20'1 2.6
2018-Feb-13 15:30N 47°35' W 122°22'3 6.1
2018-Feb-13 14:59N 47°32' W 122°20'0 0.0
2018-Feb-13 14:30N 47°32' W 122°20'0 0.1
2018-Feb-13 14:00N 47°32' W 122°20'0 0.1
2018-Feb-13 13:30N 47°32' W 122°20'0 0.0
2018-Feb-13 13:00N 47°32' W 122°20'0 0.0
2018-Feb-13 12:30N 47°32' W 122°20'0 0.0
2018-Feb-13 12:00N 47°32' W 122°20'0 0.0
2018-Feb-13 11:30N 47°32' W 122°20'0 0.0
2018-Feb-13 11:00N 47°32' W 122°20'0 0.0
2018-Feb-13 10:30N 47°32' W 122°20'0 0.0
2018-Feb-13 10:00N 47°32' W 122°20'0 0.0
2018-Feb-13 09:30N 47°32' W 122°20'0 0.0
2018-Feb-13 09:00N 47°32' W 122°20'0 0.0
2018-Feb-13 08:30N 47°32' W 122°20'0 0.0
2018-Feb-13 08:00N 47°32' W 122°20'0 0.0
2018-Feb-13 07:28N 47°32' W 122°20'0 0.0
2018-Feb-13 06:59N 47°32' W 122°20'0 0.0
2018-Feb-13 06:23N 47°32' W 122°20'0 0.0
2018-Feb-13 05:59N 47°32' W 122°20'0 0.0
2018-Feb-13 05:30N 47°32' W 122°20'0 0.0
2018-Feb-13 04:55N 47°32' W 122°20'0 0.0
2018-Feb-13 04:27N 47°32' W 122°20'0 0.0
2018-Feb-13 03:57N 47°32' W 122°20'0 0.0
2018-Feb-13 03:26N 47°32' W 122°20'0 0.0
2018-Feb-13 02:58N 47°32' W 122°20'0 0.1
2018-Feb-13 02:30N 47°32' W 122°20'0 0.0
2018-Feb-13 02:00N 47°32' W 122°20'0 0.1
2018-Feb-13 01:30N 47°32' W 122°20'0 0.0
2018-Feb-13 01:00N 47°32' W 122°20'0 0.0
2018-Feb-13 00:30N 47°32' W 122°20'0 0.0
2018-Feb-13 00:00N 47°32' W 122°20'0 0.1
2018-Feb-12 23:30N 47°32' W 122°20'0 0.1
2018-Feb-12 23:00N 47°32' W 122°20'0 0.0
2018-Feb-12 22:30N 47°32' W 122°20'0 0.1
2018-Feb-12 22:00N 47°32' W 122°20'2 4.4
2018-Feb-12 21:30N 47°34' W 122°21'2 3.8
2018-Feb-12 21:00N 47°36' W 122°20'0 0.9
2018-Feb-12 20:30N 47°37' W 122°21'0 0.3
2018-Feb-12 20:00N 47°36' W 122°21'0 0.6
2018-Feb-12 19:30N 47°36' W 122°20'0 0.1
2018-Feb-12 19:00N 47°36' W 122°20'0 0.1
2018-Feb-12 18:28N 47°36' W 122°20'0 0.3
2018-Feb-12 18:00N 47°36' W 122°20'1 0.9
2018-Feb-12 17:23N 47°36' W 122°21'0 0.0
2018-Feb-12 16:58N 47°36' W 122°21'0 0.0
2018-Feb-12 16:30N 47°36' W 122°21'0 0.0
2018-Feb-12 16:00N 47°36' W 122°21'0 0.0
2018-Feb-12 15:29N 47°36' W 122°21'1 2.6
2018-Feb-12 15:00N 47°35' W 122°21'0 0.0
2018-Feb-12 14:30N 47°35' W 122°21'1 2.6
2018-Feb-12 14:00N 47°37' W 122°21'2 3.1
2018-Feb-12 13:30N 47°35' W 122°22'3 5.4
2018-Feb-12 12:58N 47°32' W 122°20'0 0.0
2018-Feb-12 12:30N 47°32' W 122°20'0 0.0
2018-Feb-12 12:00N 47°32' W 122°20'0 0.1
2018-Feb-12 11:30N 47°32' W 122°20'0 0.1
2018-Feb-12 11:00N 47°32' W 122°20'0 0.0
2018-Feb-12 10:28N 47°32' W 122°20'0 0.0
2018-Feb-12 10:00N 47°32' W 122°20'0 0.0
2018-Feb-12 09:30N 47°32' W 122°20'0 0.0
2018-Feb-12 09:00N 47°32' W 122°20'0 0.0
2018-Feb-12 08:30N 47°32' W 122°20'0 0.0
2018-Feb-12 08:00N 47°32' W 122°20'0 0.0
2018-Feb-12 07:29N 47°32' W 122°20'0 0.0
2018-Feb-12 07:00N 47°32' W 122°20'0 0.0
2018-Feb-12 06:30N 47°32' W 122°20'0 0.0
2018-Feb-12 06:00N 47°32' W 122°20'0 0.0
2018-Feb-12 05:30N 47°32' W 122°20'0 0.0
2018-Feb-12 04:59N 47°32' W 122°20'0 0.0
2018-Feb-12 04:30N 47°32' W 122°20'0 0.0
2018-Feb-12 04:00N 47°32' W 122°20'0 0.2
2018-Feb-12 03:29N 47°32' W 122°20'0 0.2
2018-Feb-12 02:58N 47°32' W 122°20'1 1.8
2018-Feb-12 02:27N 47°33' W 122°21'2 4.9
2018-Feb-12 02:00N 47°35' W 122°22'3 5.7
2018-Feb-12 01:30N 47°37' W 122°25'1 2.5
2018-Feb-12 01:00N 47°36' W 122°23'4 7.8
2018-Feb-12 00:27N 47°33' W 122°20'1 1.3
2018-Feb-12 00:00N 47°32' W 122°20'0 0.1
2018-Feb-11 23:29N 47°32' W 122°20'0 0.4
2018-Feb-11 22:59N 47°32' W 122°19'0 0.5
2018-Feb-11 22:30N 47°32' W 122°20'0 0.1
2018-Feb-11 22:00N 47°32' W 122°20'3 5.6
2018-Feb-11 21:30N 47°35' W 122°22'2 1.4
2018-Feb-11 20:12N 47°36' W 122°21'0 0.0
2018-Feb-11 16:35N 47°37' W 122°21'0 1.4
2018-Feb-11 16:30N 47°36' W 122°21'4 7.9
2018-Feb-11 16:00N 47°32' W 122°20'0 0.3
2018-Feb-11 14:33N 47°32' W 122°20'0 0.0
2018-Feb-11 14:27N 47°32' W 122°20'0 0.0
2018-Feb-11 13:58N 47°32' W 122°20'0 0.0
2018-Feb-11 12:51N 47°32' W 122°20'0 0.0
2018-Feb-11 12:25N 47°32' W 122°20'0 0.0
2018-Feb-11 11:59N 47°32' W 122°20'0 0.0
2018-Feb-11 11:22N 47°32' W 122°20'0 0.0
2018-Feb-11 10:52N 47°32' W 122°20'0 0.0
2018-Feb-11 10:28N 47°32' W 122°20'0 0.0
2018-Feb-11 09:59N 47°32' W 122°20'0 0.0
2018-Feb-11 09:06N 47°32' W 122°20'0 0.0
2018-Feb-11 07:25N 47°32' W 122°20'0 0.0
2018-Feb-11 06:38N 47°32' W 122°20'0 0.0
2018-Feb-11 00:42N 47°32' W 122°20'1 6.4
2018-Feb-11 00:29N 47°34' W 122°21'3 1.8
2018-Feb-10 22:49N 47°36' W 122°21'0 0.0
2018-Feb-10 21:25N 47°36' W 122°21'0 0.0
2018-Feb-10 19:57N 47°36' W 122°21'0 0.0
2018-Feb-10 19:30N 47°36' W 122°21'0 0.1
2018-Feb-10 16:49N 47°36' W 122°21'2 7.1
2018-Feb-10 16:29N 47°34' W 122°21'2 4.1
2018-Feb-10 16:00N 47°32' W 122°20'0 0.0
2018-Feb-10 15:28N 47°32' W 122°20'0 0.0
2018-Feb-10 15:00N 47°32' W 122°20'0 0.0
2018-Feb-10 14:30N 47°32' W 122°20'0 0.0
2018-Feb-10 13:58N 47°32' W 122°20'0 0.0
2018-Feb-10 13:29N 47°32' W 122°20'0 0.0
2018-Feb-10 12:59N 47°32' W 122°20'0 0.0
2018-Feb-10 12:30N 47°32' W 122°20'0 0.0
2018-Feb-10 12:00N 47°32' W 122°20'0 0.0
2018-Feb-10 11:30N 47°32' W 122°20'0 0.0
2018-Feb-10 10:59N 47°32' W 122°20'0 0.0
2018-Feb-10 10:29N 47°32' W 122°20'0 0.0
2018-Feb-10 10:00N 47°32' W 122°20'0 0.0
2018-Feb-10 09:30N 47°32' W 122°20'0 0.0
2018-Feb-10 08:59N 47°32' W 122°20'0 0.0
2018-Feb-10 08:30N 47°32' W 122°20'0 0.0
2018-Feb-10 07:59N 47°32' W 122°20'0 0.0
2018-Feb-10 07:28N 47°32' W 122°20'0 0.0
2018-Feb-10 07:00N 47°32' W 122°20'0 0.0
2018-Feb-10 06:30N 47°32' W 122°20'0 0.0
2018-Feb-10 06:00N 47°32' W 122°20'0 0.0
2018-Feb-10 05:30N 47°32' W 122°20'0 0.0
2018-Feb-10 05:00N 47°32' W 122°20'0 0.0
2018-Feb-10 04:30N 47°32' W 122°20'0 0.0
2018-Feb-10 04:00N 47°32' W 122°20'0 0.0
2018-Feb-10 03:30N 47°32' W 122°20'0 0.0
2018-Feb-10 03:00N 47°32' W 122°20'0 0.0
2018-Feb-10 02:30N 47°32' W 122°20'0 0.0
2018-Feb-10 02:00N 47°32' W 122°20'0 0.0
2018-Feb-10 01:30N 47°32' W 122°20'0 0.0
2018-Feb-10 01:00N 47°32' W 122°20'1 1.6
2018-Feb-10 00:30N 47°33' W 122°20'2 5.0
2018-Feb-10 00:00N 47°35' W 122°21'0 0.2
2018-Feb-09 23:30N 47°35' W 122°21'0 0.0
2018-Feb-09 23:00N 47°35' W 122°21'0 0.0
2018-Feb-09 22:46N 47°35' W 122°21'0 0.0
2018-Feb-09 22:00N 47°35' W 122°21'1 0.6
2018-Feb-09 20:30N 47°36' W 122°20'0 0.0
2018-Feb-09 20:00N 47°36' W 122°20'0 0.9
2018-Feb-09 19:30N 47°36' W 122°21'0 0.0
2018-Feb-09 18:30N 47°36' W 122°21'4 0.7
2018-Feb-09 12:30N 47°32' W 122°20'0 0.0
2018-Feb-09 10:30N 47°32' W 122°20'0 0.0
2018-Feb-09 10:00N 47°32' W 122°20'0 0.0
2018-Feb-09 09:00N 47°32' W 122°20'0 0.0
2018-Feb-09 05:30N 47°32' W 122°20'1 0.2
2018-Feb-09 00:30N 47°33' W 122°20'1 0.8
2018-Feb-08 23:30N 47°32' W 122°20'0 0.0
2018-Feb-08 22:30N 47°32' W 122°20'0 0.0
2018-Feb-08 22:00N 47°32' W 122°20'0 0.0
2018-Feb-08 21:30N 47°32' W 122°20'4 3.6
2018-Feb-08 20:30N 47°36' W 122°21'1 0.2
2018-Feb-08 18:00N 47°36' W 122°21'4 3.7
2018-Feb-08 17:00N 47°32' W 122°20'0 0.0
2018-Feb-08 15:00N 47°32' W 122°20'0 0.0
2018-Feb-08 14:30N 47°32' W 122°20'0 0.0
2018-Feb-08 13:30N 47°32' W 122°20'0 0.0
2018-Feb-08 13:00N 47°32' W 122°20'0 0.0
2018-Feb-08 11:30N 47°32' W 122°20'0 0.0
2018-Feb-08 10:00N 47°32' W 122°20'0 0.0
2018-Feb-08 09:00N 47°32' W 122°20'0 0.0
2018-Feb-08 08:30N 47°32' W 122°20'0 0.0
2018-Feb-08 08:00N 47°32' W 122°20'0 0.0
2018-Feb-08 07:30N 47°32' W 122°20'0 0.0
2018-Feb-08 06:00N 47°32' W 122°20'0 0.0
2018-Feb-08 04:30N 47°32' W 122°20'0 0.0
2018-Feb-08 03:30N 47°32' W 122°20'0 0.0
2018-Feb-08 00:51N 47°32' W 122°20'0 0.0
2018-Feb-08 00:26N 47°32' W 122°20'0 0.0
2018-Feb-07 23:50N 47°32' W 122°20'0 0.0
2018-Feb-07 23:29N 47°32' W 122°20'0 0.0
2018-Feb-07 22:58N 47°32' W 122°20'0 0.0
2018-Feb-07 22:30N 47°32' W 122°20'0 0.0
2018-Feb-07 22:00N 47°32' W 122°20'0 0.0
2018-Feb-07 21:31N 47°32' W 122°20'0 0.0
2018-Feb-07 09:30N 47°32' W 122°20'0 0.0
2018-Feb-07 09:00N 47°32' W 122°20'0 0.0
2018-Feb-07 08:30N 47°32' W 122°20'0 0.0
2018-Feb-07 08:00N 47°32' W 122°20'0 0.0
2018-Feb-07 07:30N 47°32' W 122°20'0 0.0
2018-Feb-07 07:00N 47°32' W 122°20'0 0.0
2018-Feb-07 06:30N 47°32' W 122°20'0 0.0
2018-Feb-07 06:00N 47°32' W 122°20'0 0.0
2018-Feb-07 05:30N 47°32' W 122°20'0 0.0
2018-Feb-07 05:00N 47°32' W 122°20'0 0.0
2018-Feb-07 04:30N 47°32' W 122°20'0 0.0
2018-Feb-07 04:00N 47°32' W 122°20'0 0.0
2018-Feb-07 03:30N 47°32' W 122°20'0 0.0
2018-Feb-07 03:00N 47°32' W 122°20'0 0.0
2018-Feb-07 02:30N 47°32' W 122°20'0 0.0
2018-Feb-07 02:00N 47°32' W 122°20'0 0.0
2018-Feb-07 01:30N 47°32' W 122°20'0 0.0
2018-Feb-07 01:00N 47°32' W 122°20'0 0.0
2018-Feb-07 00:29N 47°32' W 122°20'0 0.0
2018-Feb-07 00:00N 47°32' W 122°20'0 0.0
2018-Feb-06 23:30N 47°32' W 122°20'  
Track history (hours):
 
Tides and Currents Weather Stations Pressure Air Temp Water Temp Dewpoint Dewpoint Depression Visibility Wind Speed Wind Dir Waves Ship Positions

Carolyn H

Owner: Boyer Towing, Inc., Ketchikan, AK. More information available from US FCC via Universal Licensing System and Coast Guard Vessel Documentation Center.

Last reported at 2018-Feb-16 23:05 UTC. Time now 2018-Feb-17 23:56 UTC.
Position N 47°32' W 122°20'.

Length 21 m; draft 2.2 m.

Type: Towing. MMSI: 367712860.

Date/timePositionNaut miles runAvg speedWind from/ knotsBaromVisibWave heightAir tempDewpointWater temp
2018-Feb-16 23:05N 47°32' W 122°20'0 0.2
2018-Feb-16 23:00N 47°32' W 122°20'3 5.0
2018-Feb-16 22:30N 47°34' W 122°22'2 4.2
2018-Feb-16 22:00N 47°36' W 122°21'2 4.8
2018-Feb-16 21:31N 47°38' W 122°24'3 5.3
2018-Feb-16 21:00N 47°40' W 122°26'3 6.2
2018-Feb-16 20:30N 47°42' W 122°24'3 5.5
2018-Feb-16 20:00N 47°45' W 122°23'2 4.7
2018-Feb-16 19:30N 47°47' W 122°24'2 4.9
2018-Feb-16 19:00N 47°50' W 122°22'3 5.7
2018-Feb-16 18:30N 47°52' W 122°20'3 6.4
2018-Feb-16 18:00N 47°55' W 122°19'3 6.9
2018-Feb-16 17:30N 47°58' W 122°16'4 7.5
2018-Feb-16 16:59N 48°01' W 122°13'2 1.7
2018-Feb-16 15:36N 47°59' W 122°11'0 2.3
2018-Feb-16 15:29N 47°60' W 122°11'1 1.5
2018-Feb-16 14:50N 48°01' W 122°11'1 1.6
2018-Feb-16 14:28N 48°01' W 122°11'1 2.8
2018-Feb-16 14:00N 48°01' W 122°13'1 2.3
2018-Feb-16 13:29N 47°60' W 122°13'0 0.0
2018-Feb-16 13:00N 47°60' W 122°13'0 0.0
2018-Feb-16 12:30N 47°60' W 122°13'0 0.0
2018-Feb-16 12:00N 47°60' W 122°13'0 0.0
2018-Feb-16 11:30N 47°60' W 122°13'0 0.0
2018-Feb-16 10:59N 47°60' W 122°13'0 0.0
2018-Feb-16 10:30N 47°60' W 122°13'0 0.0
2018-Feb-16 10:00N 47°60' W 122°13'0 0.0
2018-Feb-16 09:30N 47°60' W 122°13'0 0.0
2018-Feb-16 09:00N 47°60' W 122°13'0 0.0
2018-Feb-16 08:30N 47°60' W 122°13'0 1.0
2018-Feb-16 08:00N 47°59' W 122°14'2 4.3
2018-Feb-16 07:30N 47°58' W 122°16'2 4.6
2018-Feb-16 07:00N 47°57' W 122°19'2 4.9
2018-Feb-16 06:30N 47°54' W 122°20'2 4.6
2018-Feb-16 06:00N 47°52' W 122°21'2 5.0
2018-Feb-16 05:30N 47°50' W 122°23'3 6.1
2018-Feb-16 05:00N 47°47' W 122°24'3 6.3
2018-Feb-16 04:30N 47°44' W 122°25'3 6.0
2018-Feb-16 04:00N 47°41' W 122°25'1 2.7
2018-Feb-16 03:30N 47°40' W 122°24'1 1.1
2018-Feb-16 03:00N 47°40' W 122°23'0 0.6
2018-Feb-16 02:30N 47°40' W 122°23'0 0.0
2018-Feb-16 02:00N 47°40' W 122°23'0 0.8
2018-Feb-16 01:30N 47°40' W 122°23'1 1.3
2018-Feb-16 01:00N 47°40' W 122°24'1 1.6
2018-Feb-16 00:30N 47°41' W 122°25'0 0.3
2018-Feb-16 00:00N 47°41' W 122°25'0 0.0
2018-Feb-15 23:30N 47°41' W 122°25'0 0.0
2018-Feb-15 23:00N 47°41' W 122°25'0 0.0
2018-Feb-15 22:30N 47°41' W 122°25'0 0.0
2018-Feb-15 22:00N 47°41' W 122°25'0 0.0
2018-Feb-15 21:30N 47°41' W 122°25'0 0.0
2018-Feb-15 21:00N 47°41' W 122°25'0 0.0
2018-Feb-15 20:30N 47°41' W 122°25'0 0.0
2018-Feb-15 20:00N 47°41' W 122°25'0 0.0
2018-Feb-15 19:30N 47°41' W 122°25'0 0.0
2018-Feb-15 19:00N 47°41' W 122°25'0 0.0
2018-Feb-15 18:30N 47°41' W 122°25'0 0.0
2018-Feb-15 18:00N 47°41' W 122°25'0 0.0
2018-Feb-15 17:30N 47°41' W 122°25'0 0.0
2018-Feb-15 17:00N 47°41' W 122°25'0 0.0
2018-Feb-15 16:30N 47°41' W 122°25'0 0.0
2018-Feb-15 16:00N 47°41' W 122°25'0 0.1
2018-Feb-15 15:30N 47°41' W 122°25'0 0.2
2018-Feb-15 15:00N 47°41' W 122°25'0 0.6
2018-Feb-15 14:30N 47°40' W 122°25'2 3.8
2018-Feb-15 14:00N 47°39' W 122°26'2 4.6
2018-Feb-15 13:30N 47°37' W 122°23'2 4.5
2018-Feb-15 13:00N 47°35' W 122°22'2 3.3
2018-Feb-15 12:30N 47°33' W 122°21'1 2.6
2018-Feb-15 12:00N 47°32' W 122°20'0 0.0
2018-Feb-15 11:25N 47°32' W 122°20'0 0.0
2018-Feb-15 10:57N 47°32' W 122°20'0 0.0
2018-Feb-15 10:29N 47°32' W 122°20'0 0.0
2018-Feb-15 10:00N 47°32' W 122°20'0 0.0
2018-Feb-15 09:29N 47°32' W 122°20'0 0.0
2018-Feb-15 09:00N 47°32' W 122°20'0 0.0
2018-Feb-15 08:30N 47°32' W 122°20'0 0.0
2018-Feb-15 07:59N 47°32' W 122°20'0 0.0
2018-Feb-15 07:29N 47°32' W 122°20'0 0.0
2018-Feb-15 07:00N 47°32' W 122°20'0 0.0
2018-Feb-15 06:29N 47°32' W 122°20'0 0.0
2018-Feb-15 06:00N 47°32' W 122°20'0 0.0
2018-Feb-15 05:29N 47°32' W 122°20'0 0.0
2018-Feb-15 04:57N 47°32' W 122°20'0 0.0
2018-Feb-15 04:23N 47°32' W 122°20'0 0.0
2018-Feb-15 04:00N 47°32' W 122°20'0 0.0
2018-Feb-15 03:30N 47°32' W 122°20'0 0.0
2018-Feb-15 02:59N 47°32' W 122°20'0 0.0
2018-Feb-15 02:29N 47°32' W 122°20'0 0.0
2018-Feb-15 02:00N 47°32' W 122°20'0 0.0
2018-Feb-15 01:29N 47°32' W 122°20'0 0.0
2018-Feb-15 01:00N 47°32' W 122°20'0 0.0
2018-Feb-15 00:28N 47°32' W 122°20'0 0.0
2018-Feb-14 23:54N 47°32' W 122°20'0 0.0
2018-Feb-14 23:26N 47°32' W 122°20'0 0.0
2018-Feb-14 22:49N 47°32' W 122°20'0 0.0
2018-Feb-14 22:08N 47°32' W 122°20'0 0.6
2018-Feb-14 21:59N 47°32' W 122°20'2 4.7
2018-Feb-14 21:30N 47°34' W 122°21'2 3.5
2018-Feb-14 21:00N 47°36' W 122°20'0 0.3
2018-Feb-14 20:30N 47°36' W 122°20'0 0.3
2018-Feb-14 20:00N 47°36' W 122°20'0 0.0
2018-Feb-14 19:30N 47°36' W 122°20'0 0.8
2018-Feb-14 19:00N 47°36' W 122°21'2 3.8
2018-Feb-14 18:30N 47°34' W 122°21'3 5.1
2018-Feb-14 18:00N 47°32' W 122°20'2 3.8
2018-Feb-14 17:27N 47°34' W 122°21'2 4.4
2018-Feb-14 17:00N 47°36' W 122°20'0 0.1
2018-Feb-14 16:28N 47°36' W 122°20'0 0.2
2018-Feb-14 16:00N 47°36' W 122°20'1 1.2
2018-Feb-14 15:30N 47°36' W 122°21'0 0.0
2018-Feb-14 15:00N 47°36' W 122°21'2 4.4
2018-Feb-14 14:30N 47°34' W 122°21'2 4.2
2018-Feb-14 14:00N 47°32' W 122°20'0 0.0
2018-Feb-13 22:30N 47°32' W 122°20'3 5.5
2018-Feb-13 22:00N 47°35' W 122°22'2 3.2
2018-Feb-13 21:30N 47°36' W 122°20'0 0.1
2018-Feb-13 21:00N 47°36' W 122°20'0 0.2
2018-Feb-13 20:28N 47°36' W 122°20'0 0.2
2018-Feb-13 20:00N 47°36' W 122°20'0 0.1
2018-Feb-13 19:30N 47°36' W 122°20'1 1.1
2018-Feb-13 19:00N 47°36' W 122°21'0 0.0
2018-Feb-13 18:30N 47°36' W 122°21'1 1.1
2018-Feb-13 17:59N 47°36' W 122°20'0 0.1
2018-Feb-13 17:30N 47°36' W 122°20'0 0.3
2018-Feb-13 17:00N 47°36' W 122°20'0 0.0
2018-Feb-13 16:30N 47°36' W 122°20'0 0.0
2018-Feb-13 15:59N 47°36' W 122°20'1 2.6
2018-Feb-13 15:30N 47°35' W 122°22'3 6.1
2018-Feb-13 14:59N 47°32' W 122°20'0 0.0
2018-Feb-13 14:30N 47°32' W 122°20'0 0.1
2018-Feb-13 14:00N 47°32' W 122°20'0 0.1
2018-Feb-13 13:30N 47°32' W 122°20'0 0.0
2018-Feb-13 13:00N 47°32' W 122°20'0 0.0
2018-Feb-13 12:30N 47°32' W 122°20'0 0.0
2018-Feb-13 12:00N 47°32' W 122°20'0 0.0
2018-Feb-13 11:30N 47°32' W 122°20'0 0.0
2018-Feb-13 11:00N 47°32' W 122°20'0 0.0
2018-Feb-13 10:30N 47°32' W 122°20'0 0.0
2018-Feb-13 10:00N 47°32' W 122°20'0 0.0
2018-Feb-13 09:30N 47°32' W 122°20'0 0.0
2018-Feb-13 09:00N 47°32' W 122°20'0 0.0
2018-Feb-13 08:30N 47°32' W 122°20'0 0.0
2018-Feb-13 08:00N 47°32' W 122°20'0 0.0
2018-Feb-13 07:28N 47°32' W 122°20'0 0.0
2018-Feb-13 06:59N 47°32' W 122°20'0 0.0
2018-Feb-13 06:23N 47°32' W 122°20'0 0.0
2018-Feb-13 05:59N 47°32' W 122°20'0 0.0
2018-Feb-13 05:30N 47°32' W 122°20'0 0.0
2018-Feb-13 04:55N 47°32' W 122°20'0 0.0
2018-Feb-13 04:27N 47°32' W 122°20'0 0.0
2018-Feb-13 03:57N 47°32' W 122°20'0 0.0
2018-Feb-13 03:26N 47°32' W 122°20'0 0.0
2018-Feb-13 02:58N 47°32' W 122°20'0 0.1
2018-Feb-13 02:30N 47°32' W 122°20'0 0.0
2018-Feb-13 02:00N 47°32' W 122°20'0 0.1
2018-Feb-13 01:30N 47°32' W 122°20'0 0.0
2018-Feb-13 01:00N 47°32' W 122°20'0 0.0
2018-Feb-13 00:30N 47°32' W 122°20'0 0.0
2018-Feb-13 00:00N 47°32' W 122°20'0 0.1
2018-Feb-12 23:30N 47°32' W 122°20'0 0.1
2018-Feb-12 23:00N 47°32' W 122°20'0 0.0
2018-Feb-12 22:30N 47°32' W 122°20'0 0.1
2018-Feb-12 22:00N 47°32' W 122°20'2 4.4
2018-Feb-12 21:30N 47°34' W 122°21'2 3.8
2018-Feb-12 21:00N 47°36' W 122°20'0 0.9
2018-Feb-12 20:30N 47°37' W 122°21'0 0.3
2018-Feb-12 20:00N 47°36' W 122°21'0 0.6
2018-Feb-12 19:30N 47°36' W 122°20'0 0.1
2018-Feb-12 19:00N 47°36' W 122°20'0 0.1
2018-Feb-12 18:28N 47°36' W 122°20'0 0.3
2018-Feb-12 18:00N 47°36' W 122°20'1 0.9
2018-Feb-12 17:23N 47°36' W 122°21'0 0.0
2018-Feb-12 16:58N 47°36' W 122°21'0 0.0
2018-Feb-12 16:30N 47°36' W 122°21'0 0.0
2018-Feb-12 16:00N 47°36' W 122°21'0 0.0
2018-Feb-12 15:29N 47°36' W 122°21'1 2.6
2018-Feb-12 15:00N 47°35' W 122°21'0 0.0
2018-Feb-12 14:30N 47°35' W 122°21'1 2.6
2018-Feb-12 14:00N 47°37' W 122°21'2 3.1
2018-Feb-12 13:30N 47°35' W 122°22'3 5.4
2018-Feb-12 12:58N 47°32' W 122°20'0 0.0
2018-Feb-12 12:30N 47°32' W 122°20'0 0.0
2018-Feb-12 12:00N 47°32' W 122°20'0 0.1
2018-Feb-12 11:30N 47°32' W 122°20'0 0.1
2018-Feb-12 11:00N 47°32' W 122°20'0 0.0
2018-Feb-12 10:28N 47°32' W 122°20'0 0.0
2018-Feb-12 10:00N 47°32' W 122°20'0 0.0
2018-Feb-12 09:30N 47°32' W 122°20'0 0.0
2018-Feb-12 09:00N 47°32' W 122°20'0 0.0
2018-Feb-12 08:30N 47°32' W 122°20'0 0.0
2018-Feb-12 08:00N 47°32' W 122°20'0 0.0
2018-Feb-12 07:29N 47°32' W 122°20'0 0.0
2018-Feb-12 07:00N 47°32' W 122°20'0 0.0
2018-Feb-12 06:30N 47°32' W 122°20'0 0.0
2018-Feb-12 06:00N 47°32' W 122°20'0 0.0
2018-Feb-12 05:30N 47°32' W 122°20'0 0.0
2018-Feb-12 04:59N 47°32' W 122°20'0 0.0
2018-Feb-12 04:30N 47°32' W 122°20'0 0.0
2018-Feb-12 04:00N 47°32' W 122°20'0 0.2
2018-Feb-12 03:29N 47°32' W 122°20'0 0.2
2018-Feb-12 02:58N 47°32' W 122°20'1 1.8
2018-Feb-12 02:27N 47°33' W 122°21'2 4.9
2018-Feb-12 02:00N 47°35' W 122°22'3 5.7
2018-Feb-12 01:30N 47°37' W 122°25'1 2.5
2018-Feb-12 01:00N 47°36' W 122°23'4 7.8
2018-Feb-12 00:27N 47°33' W 122°20'1 1.3
2018-Feb-12 00:00N 47°32' W 122°20'0 0.1
2018-Feb-11 23:29N 47°32' W 122°20'0 0.4
2018-Feb-11 22:59N 47°32' W 122°19'0 0.5
2018-Feb-11 22:30N 47°32' W 122°20'0 0.1
2018-Feb-11 22:00N 47°32' W 122°20'3 5.6
2018-Feb-11 21:30N 47°35' W 122°22'2 1.4
2018-Feb-11 20:12N 47°36' W 122°21'0 0.0
2018-Feb-11 16:35N 47°37' W 122°21'0 1.4
2018-Feb-11 16:30N 47°36' W 122°21'4 7.9
2018-Feb-11 16:00N 47°32' W 122°20'0 0.3
2018-Feb-11 14:33N 47°32' W 122°20'0 0.0
2018-Feb-11 14:27N 47°32' W 122°20'0 0.0
2018-Feb-11 13:58N 47°32' W 122°20'0 0.0
2018-Feb-11 12:51N 47°32' W 122°20'0 0.0
2018-Feb-11 12:25N 47°32' W 122°20'0 0.0
2018-Feb-11 11:59N 47°32' W 122°20'0 0.0
2018-Feb-11 11:22N 47°32' W 122°20'0 0.0
2018-Feb-11 10:52N 47°32' W 122°20'0 0.0
2018-Feb-11 10:28N 47°32' W 122°20'0 0.0
2018-Feb-11 09:59N 47°32' W 122°20'0 0.0
2018-Feb-11 09:06N 47°32' W 122°20'0 0.0
2018-Feb-11 07:25N 47°32' W 122°20'0 0.0
2018-Feb-11 06:38N 47°32' W 122°20'0 0.0
2018-Feb-11 00:42N 47°32' W 122°20'1 6.4
2018-Feb-11 00:29N 47°34' W 122°21'3 1.8
2018-Feb-10 22:49N 47°36' W 122°21'0 0.0
2018-Feb-10 21:25N 47°36' W 122°21'0 0.0
2018-Feb-10 19:57N 47°36' W 122°21'0 0.0
2018-Feb-10 19:30N 47°36' W 122°21'0 0.1
2018-Feb-10 16:49N 47°36' W 122°21'2 7.1
2018-Feb-10 16:29N 47°34' W 122°21'2 4.1
2018-Feb-10 16:00N 47°32' W 122°20'0 0.0
2018-Feb-10 15:28N 47°32' W 122°20'0 0.0
2018-Feb-10 15:00N 47°32' W 122°20'0 0.0
2018-Feb-10 14:30N 47°32' W 122°20'0 0.0
2018-Feb-10 13:58N 47°32' W 122°20'0 0.0
2018-Feb-10 13:29N 47°32' W 122°20'0 0.0
2018-Feb-10 12:59N 47°32' W 122°20'0 0.0
2018-Feb-10 12:30N 47°32' W 122°20'0 0.0
2018-Feb-10 12:00N 47°32' W 122°20'0 0.0
2018-Feb-10 11:30N 47°32' W 122°20'0 0.0
2018-Feb-10 10:59N 47°32' W 122°20'0 0.0
2018-Feb-10 10:29N 47°32' W 122°20'0 0.0
2018-Feb-10 10:00N 47°32' W 122°20'0 0.0
2018-Feb-10 09:30N 47°32' W 122°20'0 0.0
2018-Feb-10 08:59N 47°32' W 122°20'0 0.0
2018-Feb-10 08:30N 47°32' W 122°20'0 0.0
2018-Feb-10 07:59N 47°32' W 122°20'0 0.0
2018-Feb-10 07:28N 47°32' W 122°20'0 0.0
2018-Feb-10 07:00N 47°32' W 122°20'0 0.0
2018-Feb-10 06:30N 47°32' W 122°20'0 0.0
2018-Feb-10 06:00N 47°32' W 122°20'0 0.0
2018-Feb-10 05:30N 47°32' W 122°20'0 0.0
2018-Feb-10 05:00N 47°32' W 122°20'0 0.0
2018-Feb-10 04:30N 47°32' W 122°20'0 0.0
2018-Feb-10 04:00N 47°32' W 122°20'0 0.0
2018-Feb-10 03:30N 47°32' W 122°20'0 0.0
2018-Feb-10 03:00N 47°32' W 122°20'0 0.0
2018-Feb-10 02:30N 47°32' W 122°20'0 0.0
2018-Feb-10 02:00N 47°32' W 122°20'0 0.0
2018-Feb-10 01:30N 47°32' W 122°20'0 0.0
2018-Feb-10 01:00N 47°32' W 122°20'1 1.6
2018-Feb-10 00:30N 47°33' W 122°20'2 5.0
2018-Feb-10 00:00N 47°35' W 122°21'0 0.2
2018-Feb-09 23:30N 47°35' W 122°21'0 0.0
2018-Feb-09 23:00N 47°35' W 122°21'0 0.0
2018-Feb-09 22:46N 47°35' W 122°21'0 0.0
2018-Feb-09 22:00N 47°35' W 122°21'1 0.6
2018-Feb-09 20:30N 47°36' W 122°20'0 0.0
2018-Feb-09 20:00N 47°36' W 122°20'0 0.9
2018-Feb-09 19:30N 47°36' W 122°21'0 0.0
2018-Feb-09 18:30N 47°36' W 122°21'4 0.7
2018-Feb-09 12:30N 47°32' W 122°20'0 0.0
2018-Feb-09 10:30N 47°32' W 122°20'0 0.0
2018-Feb-09 10:00N 47°32' W 122°20'0 0.0
2018-Feb-09 09:00N 47°32' W 122°20'0 0.0
2018-Feb-09 05:30N 47°32' W 122°20'1 0.2
2018-Feb-09 00:30N 47°33' W 122°20'1 0.8
2018-Feb-08 23:30N 47°32' W 122°20'0 0.0
2018-Feb-08 22:30N 47°32' W 122°20'0 0.0
2018-Feb-08 22:00N 47°32' W 122°20'0 0.0
2018-Feb-08 21:30N 47°32' W 122°20'4 3.6
2018-Feb-08 20:30N 47°36' W 122°21'1 0.2
2018-Feb-08 18:00N 47°36' W 122°21'4 3.7
2018-Feb-08 17:00N 47°32' W 122°20'0 0.0
2018-Feb-08 15:00N 47°32' W 122°20'0 0.0
2018-Feb-08 14:30N 47°32' W 122°20'0 0.0
2018-Feb-08 13:30N 47°32' W 122°20'0 0.0
2018-Feb-08 13:00N 47°32' W 122°20'0 0.0
2018-Feb-08 11:30N 47°32' W 122°20'0 0.0
2018-Feb-08 10:00N 47°32' W 122°20'0 0.0
2018-Feb-08 09:00N 47°32' W 122°20'0 0.0
2018-Feb-08 08:30N 47°32' W 122°20'0 0.0
2018-Feb-08 08:00N 47°32' W 122°20'0 0.0
2018-Feb-08 07:30N 47°32' W 122°20'0 0.0
2018-Feb-08 06:00N 47°32' W 122°20'0 0.0
2018-Feb-08 04:30N 47°32' W 122°20'0 0.0
2018-Feb-08 03:30N 47°32' W 122°20'0 0.0
2018-Feb-08 00:51N 47°32' W 122°20'0 0.0
2018-Feb-08 00:26N 47°32' W 122°20'0 0.0
2018-Feb-07 23:50N 47°32' W 122°20'0 0.0
2018-Feb-07 23:29N 47°32' W 122°20'0 0.0
2018-Feb-07 22:58N 47°32' W 122°20'0 0.0
2018-Feb-07 22:30N 47°32' W 122°20'0 0.0
2018-Feb-07 22:00N 47°32' W 122°20'0 0.0
2018-Feb-07 21:31N 47°32' W 122°20'0 0.0
2018-Feb-07 09:30N 47°32' W 122°20'0 0.0
2018-Feb-07 09:00N 47°32' W 122°20'0 0.0
2018-Feb-07 08:30N 47°32' W 122°20'0 0.0
2018-Feb-07 08:00N 47°32' W 122°20'0 0.0
2018-Feb-07 07:30N 47°32' W 122°20'0 0.0
2018-Feb-07 07:00N 47°32' W 122°20'0 0.0
2018-Feb-07 06:30N 47°32' W 122°20'0 0.0
2018-Feb-07 06:00N 47°32' W 122°20'0 0.0
2018-Feb-07 05:30N 47°32' W 122°20'0 0.0
2018-Feb-07 05:00N 47°32' W 122°20'0 0.0
2018-Feb-07 04:30N 47°32' W 122°20'0 0.0
2018-Feb-07 04:00N 47°32' W 122°20'0 0.0
2018-Feb-07 03:30N 47°32' W 122°20'0 0.0
2018-Feb-07 03:00N 47°32' W 122°20'0 0.0
2018-Feb-07 02:30N 47°32' W 122°20'0 0.0
2018-Feb-07 02:00N 47°32' W 122°20'0 0.0
2018-Feb-07 01:30N 47°32' W 122°20'0 0.0
2018-Feb-07 01:00N 47°32' W 122°20'0 0.0
2018-Feb-07 00:29N 47°32' W 122°20'0 0.0
2018-Feb-07 00:00N 47°32' W 122°20'0 0.0
2018-Feb-06 23:30N 47°32' W 122°20'  

Dump ship's entire track history